Time;durP1;ratioP1;P1;durP2;ratioP2;P2;SDS_P1;SDS_P2;PMS_P1;PMS_P2;Temp;Humidity;BMP_temperature;BMP_pressure;BME280_temperature;BME280_humidity;BME280_pressure;Samples;Min_cycle;Max_cycle;Signal;HPM_P1;HPM_P2
2021/10/19 00:02:24;;;;;;;19.23;8.13;;;13.10;93.20;;;;;;5005376;28;20029;-62
2021/10/19 00:04:50;;;;;;;16.55;8.13;;;13.10;93.20;;;;;;5022817;28;20099;-62
2021/10/19 00:07:15;;;;;;;15.00;7.60;;;13.10;93.20;;;;;;5022026;28;20084;-62
2021/10/19 00:09:41;;;;;;;16.85;8.63;;;13.10;93.10;;;;;;5022635;28;20044;-62
2021/10/19 00:12:06;;;;;;;19.42;7.78;;;13.10;93.10;;;;;;5024367;28;20519;-62
2021/10/19 00:14:32;;;;;;;15.50;7.95;;;13.00;93.10;;;;;;5024020;28;20469;-61
2021/10/19 00:16:57;;;;;;;14.02;6.95;;;13.00;93.10;;;;;;5024351;28;20052;-61
2021/10/19 00:19:23;;;;;;;18.40;7.75;;;13.00;93.10;;;;;;5023972;28;20037;-60
2021/10/19 00:21:48;;;;;;;11.98;7.10;;;12.90;93.10;;;;;;5027577;28;20283;-60
2021/10/19 00:24:14;;;;;;;12.30;7.00;;;12.90;93.10;;;;;;5025215;28;20034;-60
2021/10/19 00:26:40;;;;;;;18.85;7.55;;;12.90;93.10;;;;;;5024632;28;20029;-61
2021/10/19 00:29:05;;;;;;;14.43;7.47;;;12.90;93.10;;;;;;5015853;28;20065;-61
2021/10/19 00:31:31;;;;;;;13.65;6.57;;;12.90;93.20;;;;;;5022675;28;20026;-62
2021/10/19 00:33:56;;;;;;;16.25;7.20;;;12.90;93.20;;;;;;5008901;28;20093;-60
2021/10/19 00:36:22;;;;;;;14.70;7.03;;;12.90;93.10;;;;;;5023743;28;20522;-61
2021/10/19 00:38:47;;;;;;;13.40;8.43;;;12.90;93.40;;;;;;5024701;28;20032;-61
2021/10/19 00:41:13;;;;;;;16.77;8.75;;;12.80;93.20;;;;;;5024111;28;20034;-60
2021/10/19 00:43:39;;;;;;;20.48;8.70;;;12.80;93.20;;;;;;5024039;28;20099;-61
2021/10/19 00:46:05;;;;;;;12.27;7.88;;;12.80;93.20;;;;;;5025290;28;20180;-60
2021/10/19 00:48:32;;;;;;;24.00;9.30;;;12.80;93.30;;;;;;5010270;28;20137;-60
2021/10/19 00:50:57;;;;;;;18.92;7.10;;;12.80;93.30;;;;;;5006966;28;20018;-61
2021/10/19 00:53:23;;;;;;;16.63;7.72;;;12.70;93.30;;;;;;5023799;28;20036;-61
2021/10/19 00:55:48;;;;;;;18.08;7.80;;;12.70;93.30;;;;;;4987675;28;20041;-60
2021/10/19 00:58:14;;;;;;;13.68;7.75;;;12.70;93.30;;;;;;5024400;28;20094;-61
2021/10/19 01:00:39;;;;;;;13.50;7.10;;;12.70;93.30;;;;;;5025709;28;20033;-60
2021/10/19 01:03:05;;;;;;;11.88;7.32;;;12.70;93.30;;;;;;5018586;28;20087;-63
2021/10/19 01:05:30;;;;;;;15.35;7.07;;;12.70;93.30;;;;;;5007047;28;20087;-63
2021/10/19 01:07:56;;;;;;;18.35;7.25;;;12.70;93.60;;;;;;5022362;28;20112;-63
2021/10/19 01:10:21;;;;;;;11.18;6.85;;;12.70;93.30;;;;;;5023612;28;20083;-60
2021/10/19 01:12:47;;;;;;;18.90;7.50;;;12.70;93.30;;;;;;5025685;28;20102;-61
2021/10/19 01:15:17;;;;;;;18.02;6.65;;;12.70;93.30;;;;;;5005669;28;20022;-61
2021/10/19 01:17:47;;;;;;;9.50;6.38;;;12.70;93.30;;;;;;5023792;28;20034;-61
2021/10/19 01:20:20;;;;;;;12.23;6.47;;;12.70;93.30;;;;;;5023979;28;20477;-60
2021/10/19 01:22:45;;;;;;;20.88;6.63;;;12.70;93.30;;;;;;5024400;28;20038;-61
2021/10/19 01:25:14;;;;;;;14.10;6.95;;;12.70;93.30;;;;;;5017943;28;20025;-63
2021/10/19 01:27:47;;;;;;;18.00;7.07;;;12.60;93.30;;;;;;5024740;28;20033;-63
2021/10/19 01:30:12;;;;;;;10.23;7.07;;;12.60;93.30;;;;;;5019603;28;20032;-60
2021/10/19 01:32:38;;;;;;;14.02;6.22;;;12.60;93.30;;;;;;5005064;28;20025;-60
2021/10/19 01:35:05;;;;;;;18.02;6.90;;;12.60;93.30;;;;;;5022559;28;20042;-60
2021/10/19 01:37:30;;;;;;;8.93;6.22;;;12.60;93.30;;;;;;5025092;28;20073;-60
2021/10/19 01:39:56;;;;;;;11.02;6.38;;;12.60;93.40;;;;;;5002258;28;20096;-60
2021/10/19 01:42:21;;;;;;;13.68;6.05;;;12.60;93.30;;;;;;5023058;28;20540;-60
2021/10/19 01:44:47;;;;;;;12.63;6.57;;;12.60;93.40;;;;;;5020655;28;20033;-60
2021/10/19 01:47:12;;;;;;;12.57;6.28;;;12.60;93.40;;;;;;5022204;28;20033;-61
2021/10/19 01:49:38;;;;;;;10.10;5.85;;;12.60;93.40;;;;;;5024182;28;20033;-61
2021/10/19 01:52:03;;;;;;;9.77;6.00;;;12.60;93.50;;;;;;5006569;28;20022;-61
2021/10/19 01:54:30;;;;;;;10.10;6.40;;;12.60;93.50;;;;;;5025202;28;20060;-60
2021/10/19 01:56:56;;;;;;;7.47;6.00;;;12.60;93.50;;;;;;5022381;28;20037;-60
2021/10/19 01:59:21;;;;;;;10.48;5.63;;;12.50;93.50;;;;;;5019728;28;20037;-61
2021/10/19 02:01:48;;;;;;;11.90;5.72;;;12.50;93.50;;;;;;5022265;28;20045;-60
2021/10/19 02:04:14;;;;;;;11.45;6.38;;;12.50;93.60;;;;;;5025570;28;20038;-60
2021/10/19 02:06:39;;;;;;;9.43;6.22;;;12.50;93.60;;;;;;5017010;28;20025;-60
2021/10/19 02:09:05;;;;;;;6.80;5.45;;;12.50;93.60;;;;;;5024740;28;20027;-60
2021/10/19 02:11:31;;;;;;;6.80;5.40;;;12.50;93.60;;;;;;5023224;28;20457;-60
2021/10/19 02:13:57;;;;;;;8.05;5.47;;;12.50;93.60;;;;;;5018444;28;20041;-61
2021/10/19 02:16:22;;;;;;;10.82;5.45;;;12.40;93.60;;;;;;5021461;28;20022;-62
2021/10/19 02:18:48;;;;;;;8.15;5.63;;;12.50;93.60;;;;;;5025019;28;20037;-63
2021/10/19 02:21:13;;;;;;;7.72;5.57;;;12.40;93.60;;;;;;5023518;28;20248;-62
2021/10/19 02:23:39;;;;;;;7.65;5.43;;;12.40;93.60;;;;;;5019903;28;20112;-63
2021/10/19 02:26:04;;;;;;;8.10;5.45;;;12.40;93.60;;;;;;5016257;28;20049;-61
2021/10/19 02:28:30;;;;;;;8.32;5.03;;;12.40;93.70;;;;;;5001250;28;20705;-63
2021/10/19 02:30:55;;;;;;;12.48;8.48;;;12.40;93.70;;;;;;5022500;28;20636;-60
2021/10/19 02:33:21;;;;;;;10.65;8.20;;;12.40;93.70;;;;;;5024140;28;20116;-60
2021/10/19 02:35:47;;;;;;;10.88;7.15;;;12.40;93.70;;;;;;5019132;28;20049;-63
2021/10/19 02:38:13;;;;;;;9.93;6.80;;;12.40;93.70;;;;;;5022112;28;20064;-63
2021/10/19 02:40:38;;;;;;;7.88;6.53;;;12.30;93.70;;;;;;5019801;28;20129;-63
2021/10/19 02:43:04;;;;;;;10.35;6.72;;;12.30;93.70;;;;;;5024275;28;20056;-62
2021/10/19 02:45:29;;;;;;;12.25;6.82;;;12.30;93.70;;;;;;5004731;28;20041;-63
2021/10/19 02:47:55;;;;;;;10.23;6.82;;;12.30;93.70;;;;;;5024344;28;20025;-62
2021/10/19 02:50:20;;;;;;;11.80;6.55;;;12.30;93.70;;;;;;5005769;28;20551;-62
2021/10/19 02:52:46;;;;;;;8.30;6.20;;;12.30;93.80;;;;;;5019718;28;20053;-60
2021/10/19 02:55:16;;;;;;;8.18;6.05;;;12.30;93.80;;;;;;5022056;28;20067;-60
2021/10/19 02:57:43;;;;;;;8.65;6.05;;;12.30;93.80;;;;;;5023968;28;20029;-60
2021/10/19 03:00:10;;;;;;;9.25;6.15;;;12.30;93.70;;;;;;5021475;28;20064;-60
2021/10/19 03:02:35;;;;;;;10.15;6.07;;;12.20;93.70;;;;;;5022551;28;20468;-61
2021/10/19 03:05:01;;;;;;;11.60;5.82;;;12.20;93.70;;;;;;5023901;28;20065;-60
2021/10/19 03:07:26;;;;;;;10.98;6.38;;;12.20;93.70;;;;;;5023220;28;20045;-60
2021/10/19 03:09:52;;;;;;;8.65;5.72;;;12.20;93.70;;;;;;5019722;28;20034;-61
2021/10/19 03:12:17;;;;;;;8.05;5.85;;;12.20;93.70;;;;;;5020673;28;20025;-60
2021/10/19 03:14:43;;;;;;;8.43;5.90;;;12.20;93.70;;;;;;5022448;28;20076;-60
2021/10/19 03:17:09;;;;;;;6.95;5.53;;;12.20;93.70;;;;;;4987731;28;20026;-61
2021/10/19 03:19:34;;;;;;;7.38;5.55;;;12.20;93.70;;;;;;5020884;28;20428;-60
2021/10/19 03:22:00;;;;;;;7.22;5.60;;;12.20;93.70;;;;;;5007159;28;20029;-60
2021/10/19 03:24:25;;;;;;;6.43;5.10;;;12.20;93.70;;;;;;5022678;28;20083;-60
2021/10/19 03:26:51;;;;;;;8.82;5.25;;;12.20;93.70;;;;;;5021576;28;20029;-60
2021/10/19 03:29:17;;;;;;;6.55;5.35;;;12.10;93.70;;;;;;5022728;28;20032;-61
2021/10/19 03:31:43;;;;;;;5.82;5.22;;;12.20;93.70;;;;;;5016590;28;20041;-60
2021/10/19 03:34:08;;;;;;;8.00;5.20;;;12.10;93.70;;;;;;5023211;28;20040;-60
2021/10/19 03:36:34;;;;;;;9.90;5.18;;;12.10;93.70;;;;;;5023882;28;20030;-60
2021/10/19 03:38:59;;;;;;;7.25;5.18;;;12.10;93.70;;;;;;5023183;28;20560;-60
2021/10/19 03:41:25;;;;;;;11.18;5.70;;;12.10;93.80;;;;;;5021421;28;20489;-61
2021/10/19 03:43:50;;;;;;;6.00;5.18;;;12.10;93.80;;;;;;5020351;28;20045;-60
2021/10/19 03:46:16;;;;;;;8.23;5.40;;;12.10;93.80;;;;;;5006748;28;20045;-60
2021/10/19 03:48:41;;;;;;;6.57;4.88;;;12.10;93.90;;;;;;5029096;28;20029;-60
2021/10/19 03:51:07;;;;;;;7.18;5.10;;;12.10;93.90;;;;;;5022593;28;20045;-60
2021/10/19 03:53:32;;;;;;;5.53;5.00;;;12.10;93.90;;;;;;5026712;28;20025;-60
2021/10/19 03:55:58;;;;;;;6.22;4.70;;;12.00;93.90;;;;;;5022981;28;20464;-60
2021/10/19 03:58:23;;;;;;;6.80;5.32;;;12.00;93.90;;;;;;5024743;28;20041;-60
2021/10/19 04:00:49;;;;;;;7.05;5.35;;;12.00;93.90;;;;;;5026887;28;20037;-61
2021/10/19 04:03:15;;;;;;;6.88;5.10;;;12.00;93.90;;;;;;5025414;28;20049;-60
2021/10/19 04:05:41;;;;;;;6.50;5.13;;;12.00;93.90;;;;;;5025974;28;20033;-63
2021/10/19 04:08:07;;;;;;;8.48;4.70;;;12.00;93.90;;;;;;5023450;28;20621;-60
2021/10/19 04:10:32;;;;;;;7.13;5.38;;;12.00;94.00;;;;;;5024439;28;20145;-63
2021/10/19 04:12:58;;;;;;;8.48;5.00;;;12.00;94.00;;;;;;5024631;28;20665;-63
2021/10/19 04:15:23;;;;;;;5.78;4.90;;;12.00;94.00;;;;;;5026270;28;20021;-62
2021/10/19 04:17:49;;;;;;;6.35;4.93;;;12.00;94.00;;;;;;5027976;28;20037;-62
2021/10/19 04:20:14;;;;;;;8.77;5.30;;;12.00;94.00;;;;;;5026367;28;20041;-63
2021/10/19 04:22:40;;;;;;;16.20;6.03;;;11.90;94.00;;;;;;5025260;28;20029;-63
2021/10/19 04:25:06;;;;;;;53.92;9.35;;;11.90;94.00;;;;;;5021660;28;20124;-63
2021/10/19 04:27:33;;;;;;;30.35;7.93;;;11.90;94.10;;;;;;5024924;28;20026;-62
2021/10/19 04:29:58;;;;;;;28.90;6.90;;;11.90;94.10;;;;;;5023985;28;20614;-60
2021/10/19 04:32:24;;;;;;;30.58;6.80;;;11.90;94.10;;;;;;5027036;28;20067;-61
2021/10/19 04:34:50;;;;;;;34.72;7.47;;;11.90;94.10;;;;;;5025390;28;20096;-60
2021/10/19 04:37:16;;;;;;;24.45;6.90;;;11.90;94.10;;;;;;5023055;28;20126;-61
2021/10/19 04:39:41;;;;;;;33.90;7.18;;;11.90;94.20;;;;;;5023888;28;20108;-61
2021/10/19 04:42:07;;;;;;;23.98;6.40;;;11.80;94.20;;;;;;5024397;28;20530;-60
2021/10/19 04:44:33;;;;;;;22.38;6.78;;;11.90;94.20;;;;;;5007399;28;20052;-60
2021/10/19 04:46:58;;;;;;;27.48;6.18;;;11.80;94.20;;;;;;5024450;28;20041;-60
2021/10/19 04:49:24;;;;;;;22.83;6.10;;;11.90;94.20;;;;;;5007154;28;20055;-60
2021/10/19 04:51:49;;;;;;;23.52;6.35;;;11.90;94.20;;;;;;5025994;28;20018;-60
2021/10/19 04:54:15;;;;;;;20.83;6.38;;;11.90;94.20;;;;;;5023194;28;20607;-60
2021/10/19 04:56:40;;;;;;;18.50;7.00;;;11.90;94.20;;;;;;5021050;28;20621;-60
2021/10/19 04:59:06;;;;;;;22.33;5.78;;;11.90;94.20;;;;;;5024478;28;20513;-60
2021/10/19 05:01:31;;;;;;;16.98;5.70;;;11.90;94.20;;;;;;5022700;28;20473;-60
2021/10/19 05:03:57;;;;;;;14.98;6.13;;;11.90;94.30;;;;;;5023896;28;20037;-60
2021/10/19 05:06:22;;;;;;;23.13;6.00;;;11.80;94.30;;;;;;5022935;28;20561;-60
2021/10/19 05:08:48;;;;;;;11.60;5.00;;;11.90;94.40;;;;;;5008403;28;20437;-60
2021/10/19 05:11:13;;;;;;;13.40;5.40;;;11.90;94.50;;;;;;5025741;28;20120;-60
2021/10/19 05:13:39;;;;;;;12.27;5.78;;;11.90;94.50;;;;;;4989534;28;20033;-60
2021/10/19 05:16:04;;;;;;;15.70;5.90;;;11.90;94.50;;;;;;5023599;28;20068;-60
2021/10/19 05:18:30;;;;;;;13.80;5.20;;;11.90;94.60;;;;;;4991366;28;20367;-60
2021/10/19 05:20:55;;;;;;;17.65;4.90;;;11.80;94.60;;;;;;5024916;28;20064;-60
2021/10/19 05:23:21;;;;;;;9.73;4.82;;;11.80;94.60;;;;;;5024860;28;20025;-60
2021/10/19 05:25:46;;;;;;;18.02;5.85;;;11.90;94.60;;;;;;5023644;28;20522;-60
2021/10/19 05:28:12;;;;;;;12.68;5.07;;;11.80;94.60;;;;;;5022856;28;20044;-60
2021/10/19 05:30:37;;;;;;;12.82;4.93;;;11.80;94.70;;;;;;5005252;28;20122;-60
2021/10/19 05:33:03;;;;;;;13.93;5.95;;;11.80;94.70;;;;;;5022840;28;20036;-60
2021/10/19 05:35:30;;;;;;;17.02;5.65;;;11.80;94.70;;;;;;5024928;28;20430;-60
2021/10/19 05:37:56;;;;;;;12.38;5.85;;;11.80;94.70;;;;;;5021799;28;20021;-60
2021/10/19 05:40:22;;;;;;;13.68;4.88;;;11.80;94.70;;;;;;5019537;28;20040;-60
2021/10/19 05:42:48;;;;;;;12.57;4.90;;;11.80;94.70;;;;;;5014991;28;20175;-60
2021/10/19 05:45:13;;;;;;;9.85;5.25;;;11.80;94.70;;;;;;5018051;28;20042;-60
2021/10/19 05:47:41;;;;;;;9.07;4.80;;;11.80;94.70;;;;;;5025613;28;21145;-60
2021/10/19 05:50:07;;;;;;;15.70;4.68;;;11.80;94.80;;;;;;5023313;28;20021;-60
2021/10/19 05:52:32;;;;;;;13.82;4.68;;;11.80;94.80;;;;;;5024767;28;20086;-60
2021/10/19 05:54:58;;;;;;;11.88;4.72;;;11.80;94.80;;;;;;5023005;28;20060;-61
2021/10/19 05:57:23;;;;;;;14.25;5.00;;;11.80;94.80;;;;;;5022573;28;20068;-60
2021/10/19 05:59:49;;;;;;;8.57;5.25;;;11.80;94.80;;;;;;5021550;28;20032;-60
2021/10/19 06:02:14;;;;;;;11.13;4.93;;;11.80;94.80;;;;;;5023576;28;20041;-60
2021/10/19 06:04:40;;;;;;;9.35;4.78;;;11.80;94.80;;;;;;5022182;28;20025;-60
2021/10/19 06:07:05;;;;;;;11.35;5.10;;;11.80;94.80;;;;;;5022703;28;20463;-61
2021/10/19 06:09:31;;;;;;;12.63;5.13;;;11.80;94.80;;;;;;5021833;28;20521;-60
2021/10/19 06:11:56;;;;;;;6.28;4.93;;;11.80;94.80;;;;;;5022855;28;20022;-60
2021/10/19 06:14:23;;;;;;;13.75;5.05;;;11.80;94.80;;;;;;5022694;28;20037;-60
2021/10/19 06:16:49;;;;;;;11.55;4.60;;;11.80;94.80;;;;;;5005991;28;20523;-62
2021/10/19 06:19:14;;;;;;;9.95;4.28;;;11.80;94.90;;;;;;5019769;28;20025;-61
2021/10/19 06:21:40;;;;;;;10.90;5.10;;;11.80;94.90;;;;;;5021011;28;20053;-62
2021/10/19 06:24:06;;;;;;;11.45;5.32;;;11.80;94.90;;;;;;5021066;28;20458;-60
2021/10/19 06:26:35;;;;;;;6.80;4.72;;;11.90;94.90;;;;;;5021536;28;20041;-60
2021/10/19 06:29:00;;;;;;;13.20;4.90;;;11.80;94.80;;;;;;5022741;28;20518;-59
2021/10/19 06:31:26;;;;;;;10.20;4.82;;;11.90;94.80;;;;;;5022469;28;20021;-60
2021/10/19 06:33:51;;;;;;;11.77;5.25;;;11.80;94.80;;;;;;5020196;28;20095;-63
2021/10/19 06:36:17;;;;;;;9.35;5.05;;;11.90;94.80;;;;;;5020821;28;20046;-63
2021/10/19 06:38:42;;;;;;;9.77;5.05;;;11.90;94.80;;;;;;5024138;28;20025;-63
2021/10/19 06:41:08;;;;;;;7.00;5.28;;;11.80;94.80;;;;;;5025305;28;20596;-62
2021/10/19 06:43:33;;;;;;;9.32;5.20;;;11.90;94.80;;;;;;5023018;28;20493;-62
2021/10/19 06:45:59;;;;;;;7.90;4.75;;;11.90;94.80;;;;;;5022108;28;20250;-63
2021/10/19 06:48:24;;;;;;;9.98;5.55;;;11.90;94.80;;;;;;5023053;28;20054;-62
2021/10/19 06:50:50;;;;;;;10.23;5.65;;;11.90;94.90;;;;;;5024047;28;20029;-62
2021/10/19 06:53:15;;;;;;;10.13;5.47;;;11.90;94.90;;;;;;5023740;28;20556;-62
2021/10/19 06:55:41;;;;;;;9.57;5.47;;;11.90;94.90;;;;;;5023596;28;20038;-63
2021/10/19 06:58:09;;;;;;;11.50;5.18;;;11.90;95.00;;;;;;5020845;28;20037;-62
2021/10/19 07:00:35;;;;;;;10.45;5.85;;;11.90;94.90;;;;;;5020567;28;20038;-63
2021/10/19 07:03:00;;;;;;;12.82;5.57;;;12.00;95.00;;;;;;5023202;28;20033;-63
2021/10/19 07:05:26;;;;;;;13.73;5.28;;;12.00;95.00;;;;;;5024359;28;20133;-63
2021/10/19 07:07:51;;;;;;;11.73;4.72;;;12.00;95.00;;;;;;5024002;28;20036;-63
2021/10/19 07:10:19;;;;;;;11.43;5.38;;;12.00;94.90;;;;;;5024049;28;20032;-62
2021/10/19 07:12:45;;;;;;;13.80;5.38;;;12.00;94.90;;;;;;5022738;28;20034;-62
2021/10/19 07:15:11;;;;;;;11.63;6.00;;;12.00;94.90;;;;;;5022094;28;20036;-63
2021/10/19 07:17:37;;;;;;;14.93;6.18;;;12.00;94.90;;;;;;5022202;28;20450;-63
2021/10/19 07:20:03;;;;;;;10.77;6.00;;;12.00;94.90;;;;;;5020113;28;20391;-63
2021/10/19 07:22:31;;;;;;;11.05;5.63;;;12.00;94.90;;;;;;5023091;28;20290;-63
2021/10/19 07:24:56;;;;;;;11.82;5.75;;;12.10;94.90;;;;;;5009298;28;20035;-62
2021/10/19 07:27:22;;;;;;;14.30;6.43;;;12.10;95.00;;;;;;5020787;28;20042;-63
2021/10/19 07:29:47;;;;;;;10.82;6.22;;;12.10;95.00;;;;;;5020056;28;20041;-63
2021/10/19 07:32:14;;;;;;;21.38;5.97;;;12.10;95.00;;;;;;5023323;28;20134;-62
2021/10/19 07:34:40;;;;;;;15.75;6.55;;;12.10;94.90;;;;;;5023134;28;20491;-60
2021/10/19 07:37:06;;;;;;;15.25;6.20;;;12.10;95.00;;;;;;5026260;28;20100;-60
2021/10/19 07:39:31;;;;;;;17.13;5.97;;;12.10;95.00;;;;;;5022661;28;20502;-61
2021/10/19 07:41:57;;;;;;;13.18;7.00;;;12.20;95.00;;;;;;5023031;28;20033;-60
2021/10/19 07:44:23;;;;;;;14.82;6.15;;;12.20;95.00;;;;;;5027436;28;20487;-60
2021/10/19 07:46:51;;;;;;;13.68;5.90;;;12.20;95.00;;;;;;5025488;28;20037;-61
2021/10/19 07:49:18;;;;;;;17.15;6.63;;;12.20;95.10;;;;;;5021337;28;20034;-59
2021/10/19 07:51:44;;;;;;;17.98;6.85;;;12.20;95.20;;;;;;5023192;28;20021;-60
2021/10/19 07:54:10;;;;;;;13.82;6.60;;;12.30;95.40;;;;;;5006727;28;20045;-60
2021/10/19 07:56:35;;;;;;;20.08;6.15;;;12.30;95.20;;;;;;5025033;28;20028;-60
2021/10/19 07:59:05;;;;;;;17.08;6.20;;;12.30;95.10;;;;;;5026373;28;20037;-63
2021/10/19 08:01:30;;;;;;;20.02;6.80;;;12.30;95.20;;;;;;5025858;28;20087;-62
2021/10/19 08:03:56;;;;;;;26.88;8.23;;;12.30;95.20;;;;;;5023257;28;20516;-62
2021/10/19 08:06:21;;;;;;;23.60;7.15;;;12.40;95.40;;;;;;5006437;28;20052;-63
2021/10/19 08:08:47;;;;;;;22.40;7.57;;;12.40;95.30;;;;;;5025298;28;20035;-62
2021/10/19 08:11:13;;;;;;;20.55;6.90;;;12.40;95.30;;;;;;5026382;28;20025;-60
2021/10/19 08:13:38;;;;;;;16.48;6.85;;;12.40;95.30;;;;;;5024905;28;20299;-60
2021/10/19 08:16:04;;;;;;;24.27;7.55;;;12.40;95.30;;;;;;5024605;28;20032;-60
2021/10/19 08:18:30;;;;;;;21.98;7.20;;;12.50;95.20;;;;;;5023256;28;20428;-60
2021/10/19 08:20:56;;;;;;;18.05;8.00;;;12.50;95.50;;;;;;5023701;28;20025;-60
2021/10/19 08:23:21;;;;;;;29.35;7.60;;;12.60;95.40;;;;;;5025666;28;20269;-60
2021/10/19 08:25:47;;;;;;;27.92;7.90;;;12.50;95.50;;;;;;5023552;28;20521;-60
2021/10/19 08:28:22;;;;;;;37.95;8.02;;;12.60;95.50;;;;;;5023038;28;20030;-61
2021/10/19 08:30:49;;;;;;;35.45;8.82;;;12.60;95.50;;;;;;5022964;28;20021;-60
2021/10/19 08:33:15;;;;;;;32.63;7.05;;;12.70;95.50;;;;;;5023834;28;20430;-60
2021/10/19 08:35:40;;;;;;;41.78;8.07;;;12.70;95.50;;;;;;5024263;28;20132;-60
2021/10/19 08:38:06;;;;;;;32.97;7.70;;;12.70;95.40;;;;;;5023731;28;20095;-60
2021/10/19 08:40:31;;;;;;;35.10;8.77;;;12.70;95.70;;;;;;5024986;28;20560;-60
2021/10/19 08:42:57;;;;;;;29.17;8.13;;;12.80;95.60;;;;;;5024591;28;20037;-60
2021/10/19 08:45:23;;;;;;;35.13;9.95;;;12.80;95.60;;;;;;5025227;28;20045;-60
2021/10/19 08:47:49;;;;;;;44.30;8.18;;;12.80;95.50;;;;;;5006989;28;20053;-60
2021/10/19 08:50:16;;;;;;;30.27;6.75;;;12.90;95.40;;;;;;5025719;28;20040;-59
2021/10/19 08:52:41;;;;;;;35.53;7.50;;;12.90;95.30;;;;;;5023778;28;20037;-60
2021/10/19 08:55:07;;;;;;;40.30;8.27;;;12.90;95.10;;;;;;5023764;28;20635;-60
2021/10/19 08:57:33;;;;;;;41.00;8.52;;;12.90;95.00;;;;;;5022219;28;20382;-60
2021/10/19 08:59:58;;;;;;;41.55;7.85;;;13.00;95.10;;;;;;5019431;28;20065;-63
2021/10/19 09:02:38;;;;;;;36.55;7.65;;;13.00;95.10;;;;;;5019900;28;20500;-60
2021/10/19 09:05:05;;;;;;;50.85;9.10;;;13.00;95.10;;;;;;5025292;28;20134;-60
2021/10/19 09:07:31;;;;;;;26.05;7.47;;;13.00;95.10;;;;;;5025514;28;20127;-60
2021/10/19 09:09:56;;;;;;;41.83;8.18;;;13.00;95.00;;;;;;5005843;28;20033;-60
2021/10/19 09:12:23;;;;;;;43.00;8.45;;;13.00;95.00;;;;;;5005890;28;20458;-60
2021/10/19 09:14:48;;;;;;;38.15;8.63;;;13.10;94.90;;;;;;5023349;28;20030;-61
2021/10/19 09:17:14;;;;;;;36.75;7.72;;;13.10;94.90;;;;;;5005470;28;20386;-59
2021/10/19 09:19:41;;;;;;;52.03;7.72;;;13.20;94.80;;;;;;5025317;28;20484;-60
2021/10/19 09:22:08;;;;;;;58.83;9.45;;;13.20;94.90;;;;;;5022940;28;20108;-60
2021/10/19 09:24:41;;;;;;;32.75;7.45;;;13.20;95.10;;;;;;5021956;28;20038;-60
2021/10/19 09:27:17;;;;;;;47.03;8.73;;;13.30;94.80;;;;;;5019568;28;20033;-59
2021/10/19 09:29:45;;;;;;;59.97;9.18;;;13.30;94.80;;;;;;5005837;28;20021;-60
2021/10/19 09:32:12;;;;;;;33.80;8.77;;;13.30;94.70;;;;;;5023151;28;20044;-60
2021/10/19 09:34:38;;;;;;;53.22;9.68;;;13.40;94.80;;;;;;5021804;28;20017;-60
2021/10/19 09:37:05;;;;;;;59.33;9.95;;;13.40;94.70;;;;;;5022527;28;20041;-61
2021/10/19 09:39:42;;;;;;;59.50;9.65;;;13.40;94.70;;;;;;5023180;28;20038;-60
2021/10/19 09:42:09;;;;;;;40.22;8.98;;;13.40;94.70;;;;;;5023973;28;20126;-60
2021/10/19 09:44:35;;;;;;;46.42;9.75;;;13.50;94.80;;;;;;5008008;28;20104;-60
2021/10/19 09:47:01;;;;;;;54.70;10.07;;;13.50;94.70;;;;;;5025820;28;20029;-59
2021/10/19 09:49:27;;;;;;;48.08;10.07;;;13.60;94.80;;;;;;5002150;28;20038;-61
2021/10/19 09:51:53;;;;;;;57.42;10.45;;;13.60;94.70;;;;;;5022675;28;20073;-61
2021/10/19 09:54:20;;;;;;;71.07;11.63;;;13.70;94.60;;;;;;5017394;28;20128;-59
2021/10/19 09:56:46;;;;;;;82.22;10.65;;;13.70;94.50;;;;;;5022087;28;20041;-60
2021/10/19 09:59:11;;;;;;;197.75;22.92;;;13.70;94.40;;;;;;5023794;28;20033;-60
2021/10/19 10:01:37;;;;;;;110.55;14.02;;;13.80;94.30;;;;;;5022850;28;20205;-60
2021/10/19 10:04:03;;;;;;;82.88;11.73;;;13.80;94.20;;;;;;5006938;28;20041;-59
2021/10/19 10:06:31;;;;;;;60.55;10.02;;;13.80;94.10;;;;;;5023584;28;20017;-60
2021/10/19 10:08:57;;;;;;;110.68;12.93;;;13.90;94.00;;;;;;5008730;28;20020;-60
2021/10/19 10:11:23;;;;;;;79.35;11.75;;;13.90;94.00;;;;;;5024699;28;20021;-60
2021/10/19 10:13:59;;;;;;;114.28;15.80;;;14.00;93.90;;;;;;5007122;28;20030;-60
2021/10/19 10:16:24;;;;;;;121.15;14.68;;;14.00;93.80;;;;;;5024714;28;20468;-60
2021/10/19 10:18:50;;;;;;;101.10;11.98;;;14.10;93.70;;;;;;5020979;28;20167;-60
2021/10/19 10:21:17;;;;;;;130.90;16.88;;;14.10;93.60;;;;;;5017437;28;20196;-60
2021/10/19 10:23:43;;;;;;;130.82;13.30;;;14.10;93.60;;;;;;5019608;28;20548;-60
2021/10/19 10:26:19;;;;;;;110.15;13.88;;;14.20;93.60;;;;;;5004568;28;20049;-59
2021/10/19 10:28:44;;;;;;;92.90;12.25;;;14.20;93.50;;;;;;5021010;28;20138;-60
2021/10/19 10:31:21;;;;;;;109.70;14.18;;;14.30;93.30;;;;;;5019540;28;20029;-60
2021/10/19 10:33:49;;;;;;;125.13;13.45;;;14.30;93.30;;;;;;5022946;28;20123;-61
2021/10/19 10:36:15;;;;;;;105.55;12.90;;;14.30;93.20;;;;;;5022123;28;20080;-60
2021/10/19 10:38:57;;;;;;;102.40;12.35;;;14.30;93.30;;;;;;5021542;28;20034;-60
2021/10/19 10:41:22;;;;;;;99.10;14.55;;;14.40;93.20;;;;;;5022204;28;20172;-61
2021/10/19 10:44:00;;;;;;;118.85;14.32;;;14.40;93.10;;;;;;5021669;28;20124;-60
2021/10/19 10:46:26;;;;;;;121.63;15.75;;;14.50;93.00;;;;;;5003303;28;20392;-61
2021/10/19 10:48:54;;;;;;;105.25;15.70;;;14.50;92.90;;;;;;5003078;28;20033;-61
2021/10/19 10:51:33;;;;;;;97.43;12.90;;;14.50;92.80;;;;;;5020004;28;20431;-59
2021/10/19 10:53:59;;;;;;;216.15;20.20;;;14.60;92.60;;;;;;5019859;28;20048;-60
2021/10/19 10:56:24;;;;;;;108.95;15.07;;;14.60;92.60;;;;;;5020875;28;20551;-60
2021/10/19 10:58:50;;;;;;;122.38;14.70;;;14.60;92.40;;;;;;5016900;28;20488;-60
2021/10/19 11:01:17;;;;;;;105.65;13.07;;;14.70;92.50;;;;;;5017721;28;20441;-60
2021/10/19 11:03:44;;;;;;;85.25;13.13;;;14.70;92.40;;;;;;4997590;28;20411;-60
2021/10/19 11:06:12;;;;;;;98.57;13.15;;;14.70;92.30;;;;;;5012064;28;20550;-60
2021/10/19 11:08:38;;;;;;;65.50;11.02;;;14.70;92.10;;;;;;5016046;28;20138;-61
2021/10/19 11:11:11;;;;;;;107.38;14.40;;;14.80;92.00;;;;;;5013953;28;20389;-59
2021/10/19 11:13:58;;;;;;;99.65;12.23;;;14.80;92.10;;;;;;5001936;28;20029;-61
2021/10/19 11:16:38;;;;;;;87.40;13.50;;;14.80;92.20;;;;;;5014042;28;20026;-60
2021/10/19 11:19:25;;;;;;;97.95;14.00;;;14.90;92.00;;;;;;5015499;28;20053;-60
2021/10/19 11:22:01;;;;;;;119.55;14.30;;;14.90;92.00;;;;;;5016544;28;20111;-60
2021/10/19 11:24:28;;;;;;;103.82;12.25;;;15.00;92.20;;;;;;5011884;28;20036;-60
2021/10/19 11:26:54;;;;;;;125.80;15.15;;;14.90;91.60;;;;;;5015806;28;20178;-60
2021/10/19 11:29:20;;;;;;;108.50;13.57;;;15.10;91.70;;;;;;5012540;28;20037;-60
2021/10/19 11:31:46;;;;;;;98.82;12.90;;;15.10;91.90;;;;;;5011675;28;20133;-60
2021/10/19 11:34:11;;;;;;;81.68;10.63;;;15.20;91.50;;;;;;5014274;28;20109;-60
2021/10/19 11:36:37;;;;;;;123.78;12.55;;;15.20;90.80;;;;;;5014989;28;20033;-60
2021/10/19 11:39:13;;;;;;;102.70;13.50;;;15.20;90.60;;;;;;5015107;28;20030;-60
2021/10/19 11:41:46;;;;;;;73.60;10.00;;;15.20;90.40;;;;;;5018755;28;20046;-60
2021/10/19 11:44:12;;;;;;;99.57;12.90;;;15.30;90.20;;;;;;5019156;28;20029;-59
2021/10/19 11:46:40;;;;;;;109.28;13.38;;;15.40;90.40;;;;;;5002867;28;20492;-60
2021/10/19 11:49:07;;;;;;;92.30;13.23;;;15.40;90.70;;;;;;5015275;28;20041;-60
2021/10/19 11:51:33;;;;;;;86.50;11.25;;;15.40;90.70;;;;;;5020052;28;20578;-62
2021/10/19 11:54:01;;;;;;;88.75;11.13;;;15.50;90.60;;;;;;5002866;28;20124;-63
2021/10/19 11:56:26;;;;;;;76.53;10.20;;;15.50;90.10;;;;;;5020288;28;20048;-63
2021/10/19 11:58:53;;;;;;;97.68;11.85;;;15.50;89.60;;;;;;5022168;28;20029;-60
2021/10/19 12:01:23;;;;;;;86.85;11.95;;;15.60;89.40;;;;;;5023486;28;20038;-60
2021/10/19 12:03:55;;;;;;;84.90;11.32;;;15.70;89.60;;;;;;5023212;28;20431;-60
2021/10/19 12:06:23;;;;;;;72.22;10.43;;;15.70;89.30;;;;;;5023670;28;20128;-60
2021/10/19 12:08:49;;;;;;;79.80;10.60;;;15.80;89.00;;;;;;5024745;28;20077;-62
2021/10/19 12:11:14;;;;;;;78.60;10.05;;;15.80;88.70;;;;;;5023745;28;20142;-63
2021/10/19 12:13:40;;;;;;;94.88;10.93;;;15.80;88.50;;;;;;5015064;28;20526;-61
2021/10/19 12:16:12;;;;;;;76.15;9.88;;;15.90;88.30;;;;;;5019672;28;20489;-60
2021/10/19 12:18:41;;;;;;;64.60;9.45;;;15.90;87.90;;;;;;5026248;28;20029;-60
2021/10/19 12:21:07;;;;;;;75.88;9.88;;;15.90;88.30;;;;;;5024658;28;20481;-60
2021/10/19 12:23:32;;;;;;;85.28;10.90;;;16.00;89.20;;;;;;5020702;28;20101;-60
2021/10/19 12:25:59;;;;;;;58.60;9.55;;;16.10;89.30;;;;;;5026649;28;20386;-60
2021/10/19 12:28:26;;;;;;;64.22;10.55;;;16.10;89.30;;;;;;5024072;28;20033;-61
2021/10/19 12:30:53;;;;;;;66.57;9.38;;;16.10;89.20;;;;;;5023398;28;20021;-61
2021/10/19 12:33:27;;;;;;;69.68;9.30;;;16.20;89.30;;;;;;5024469;28;20049;-60